Sierra Vista, AZ (85635)

6:43 PM MST on December 18, 2014 (GMT -0700)
Oakmont | Change Station
CLOSE
Current Station
Personal Weather Station
Location: Sierra Vista, AZ
Elevation: 4550 ft
Nearby Weather Stations

Elev 4550 ft 31.53 °N, 110.26 °W | Updated 1 second ago

Mostly Cloudy
Mostly Cloudy
45.0 °F
Feels Like 44 °F
N
3.4
Wind Variable Wind from NW
Gusts 4.3 mph

Today
High -- | Low -- °F
--% Chance of Precip.
Yesterday
High -- | Low -- °F
Precip. -- in
7:14 AM 5:20 PM
Waning Crescent, 11% visible
Pressure 30.11 in
Visibility 10.0 miles
Clouds Few 2000 ft
Scattered Clouds 2900 ft
Mostly Cloudy 3900 ft
Windchill 44 °F
Dew Point 37 °F
Humidity 73%
Rainfall 0.03 in
Snow Depth Not available.
UV 0 out of 12
Pollen 4.20 out of 12
Air Quality Not available.
Flu Activity Not available.
METAR KFHU 190055Z 31005KT 10SM FEW020 SCT029 BKN039 07/03 A3013 RMK SLP194

More Conditions Fewer Conditions

Pressure 30.11 in
Visibility 10.0 miles
Clouds Few 2000 ft
Scattered Clouds 2900 ft
Mostly Cloudy 3900 ft
Windchill 44 °F
Dew Point 37 °F
Humidity 73%
Rainfall 0.03 in
Snow Depth Not available.
UV 0 out of 12
Pollen 4.20 out of 12
Air Quality Not available.
Flu Activity Not available.
METAR KFHU 190055Z 31005KT 10SM FEW020 SCT029 BKN039 07/03 A3013 RMK SLP194

More Conditions Fewer Conditions

Nowcast | as of 2:18 PM MST on December 18, 2014

Scattered light to moderate showers continued to spread farther east across Southeast Arizona this afternoon. These showers will exit and taper off across the area later this evening...with clearing skies from west to east. These clearing skies along with residual moisture in the air...will result in patchy fog overnight into early Friday morning. Some areas might even experience freezing fog near sunrise Friday morning.

×

10-Day Weather Forecast

Almanac

Astronomy

Dec. 18, 2014 Rise Set
Actual Time
Civil Twilight
Nautical Twilight
Astronomical Twilight
Moon
Length of Visible Light
Length of Day
Tomorrow will be .
, % of the Moon is Illuminated

Today's Extremes

State Highs State Lows

Community

WunderPhotos

Upload Photos

1,779,034 photos uploaded!

WunderBlogs® & News

Nearby

Air Quality

  Air Quality AQ Index Pollutant
Not available.

Snow Depth

Station Depth Elevation

Earthquake Activity

City Distance Mag. Time & Date
Minimum magnitude displayed is 2.5.

Coastal Water Temperatures

Place Temperature

Nearby Weather Stations